Ana Sayfa
METAR-TAF:

METAR-TAF

Havaalanları :

Buriram, Tayland

Enlem: 15-13-46N, Boylam: 103-15-04E, yükseklik: 180 m

Güncel hava durumu gözlemi

Rapor saat 13:00 UTC de 6 saat ve 49 dakika önce yapıldı.
Rüzgar kuzeydoğudan 3 kt
Sıcaklık 26°C
Nem 54%
Basınç 1013 hPa
Görüş mesafesi: 5000 m
Toz Pusu

METAR: VTUO 181300Z 04003KT 5000 HZ NSC 26/16 Q1013 NOSIG

Saat: 02:49 (19:49 UTC)

Tahmin

Rapor saat 17:00 UTC de 2 saat ve 49 dakika önce yapıldı.
Ayın 18'si saat 18 UTC'den ayın 19'si saat 18 UTC'ye kadar geçerli Tahmin
Rüzgar doğu/kuzeydoğudan 5 kt
Görüş mesafesi: 8000 m
Dönüşüyor
ayın 18'si saat 19 UTC'den ayın 18'si saat 21 UTC'ye kadar
Görüş mesafesi: 4000 m
Pus
Dönüşüyor
ayın 19'si saat 00 UTC'den ayın 19'si saat 02 UTC'ye kadar
Görüş mesafesi: 7000 m

TAF: VTUO 181700Z 1818/1918 06005KT 8000 NSC BECMG 1819/1821 4000 BR BECMG 1900/1902 7000 NSW

4.000'den fazla havaalanı için hava durumu gözlemleri ve tahminleri (METAR ve TAF raporları).

Kullanılabilir istasyonlar harita üzerinde sarı ve kırmızı noktalarla gösterilir.

İstasyonun adını görmek için fareyi noktanın üzerinde gezdirin.

Sonrasında hava gözlem ve tahminlerini görmek için tıklayın.

Haritayı değiştirmek için: yaklaştırmak için siyah artı işaretli yeşil düğmeye ve uzaklaştırmak için de eksi işaretli düğmeye hızla tıklayın; bitişik haritalar için yeşil okları kullanın.


METAR-TAF: